FW1590 Weather Reports


Display with metric or nautical units.
time (UTC)temp
F
wind
direction
speed
MPH
gust
MPH
rain 1hr
in
rain 24hr
in
rain mn
in
humidity
%
barometer
mb
20191013230150 54 172 1.0 4.0 0.00 0.00 0.00 48 1013.8
20191013224702 54 181 2.0 4.0 0.00 0.00 0.00 47 1013.8
20191013221655 54 194 2.0 8.0 0.00 0.00 0.00 47 1014.0
20191013220142 54 170 5.0 9.0 0.00 0.00 0.00 48 1014.2
20191013214636 55 185 3.0 7.0 0.00 0.00 0.00 45 1014.3
20191013213105 55 180 0.0 6.0 0.00 0.00 0.00 43 1014.4
20191013211556 55 133 1.0 6.0 0.00 0.00 0.00 44 1014.5
20191013210049 55 207 1.0 5.0 0.00 0.00 0.00 46 1014.6
20191013204544 53 190 2.0 7.0 0.00 0.00 0.00 50 1014.7
20191013203109 53 148 2.0 8.0 0.00 0.00 0.00 51 1014.9
20191013201548 53 159 2.0 8.0 0.00 0.00 0.00 50 1015.1
20191013200110 53 134 2.0 9.0 0.00 0.00 0.00 47 1015.2
20191013194557 52 172 4.0 7.0 0.00 0.00 0.00 48 1015.5
20191013193054 51 180 4.0 8.0 0.00 0.00 0.00 52 1015.7
20191013191631 50 186 4.0 10.0 0.00 0.00 0.00 54 1015.9
20191013190023 51 178 4.0 8.0 0.00 0.00 0.00 54 1016.0
20191013184512 50 223 5.0 8.0 0.00 0.00 0.00 53 1016.2
20191013183035 49 175 2.0 10.0 0.00 0.00 0.00 52 1016.4
20191013181506 49 172 4.0 9.0 0.00 0.00 0.00 54 1016.6
20191013180002 49 238 2.0 7.0 0.00 0.00 0.00 54 1016.8
20191013174641 48 223 2.0 5.0 0.00 0.00 0.00 54 1016.9
20191013173130 48 180 4.0 9.0 0.00 0.00 0.00 54 1017.1
20191013171641 47 179 4.0 8.0 0.00 0.00 0.00 56 1017.1
20191013170159 46 203 4.0 8.0 0.00 0.00 0.00 57 1017.1
20191013164647 45 191 5.0 8.0 0.00 0.00 0.00 60 1017.1
20191013163123 44 183 4.0 7.0 0.00 0.00 0.00 61 1017.3
20191013161614 43 182 3.0 7.0 0.00 0.00 0.00 67 1017.2
20191013160158 42 144 3.0 5.0 0.00 0.00 0.00 68 1017.4
20191013154544 41 153 2.0 5.0 0.00 0.00 0.00 69 1017.5
20191013153041 41 136 2.0 4.0 0.00 0.00 0.00 67 1017.5
20191013151609 39 161 1.0 4.0 0.00 0.00 0.00 70 1017.6
20191013150041 36 136 1.0 2.0 0.00 0.00 0.00 82 1017.6
20191013144519 32 142 0.0 1.0 0.00 0.01 0.00 84 1017.6
20191013143020 29 142 0.0 1.0 0.00 0.01 0.00 86 1017.5
20191013141545 26 142 0.0 0.0 0.00 0.01 0.00 87 1017.6
20191013140032 25 142 0.0 1.0 0.00 0.01 0.00 88 1017.5
20191013134745 23 142 0.0 1.0 0.00 0.01 0.00 90 1017.5
20191013133145 23 142 0.0 2.0 0.00 0.01 0.00 90 1017.5
20191013131703 23 142 0.0 1.0 0.00 0.01 0.00 90 1017.6
20191013130158 22 142 0.0 2.0 0.00 0.01 0.00 90 1017.6
20191013124633 22 140 1.0 2.0 0.00 0.01 0.00 91 1017.7
20191013123154 21 140 0.0 2.0 0.00 0.01 0.00 90 1017.8
20191013121747 22 126 0.0 2.0 0.00 0.01 0.00 90 1017.8
20191013120205 22 126 0.0 2.0 0.00 0.01 0.00 89 1018.0
20191013114641 22 126 1.0 2.0 0.00 0.01 0.00 91 1017.9
20191013113103 22 126 0.0 2.0 0.00 0.01 0.00 90 1018.0
20191013111656 21 127 0.0 2.0 0.00 0.01 0.00 91 1017.9
20191013110204 21 127 0.0 1.0 0.00 0.01 0.00 90 1018.0
20191013104632 21 127 1.0 2.0 0.00 0.01 0.00 90 1017.9
20191013103304 20 127 2.0 3.0 0.00 0.01 0.00 91 1018.0
20191013101557 20 150 1.0 4.0 0.00 0.01 0.00 90 1018.0
20191013100108 20 144 2.0 3.0 0.00 0.01 0.00 89 1018.1
20191013094616 21 142 0.0 2.0 0.00 0.01 0.00 90 1018.2
20191013093047 21 142 0.0 2.0 0.00 0.01 0.00 90 1018.2
20191013091614 21 142 0.0 1.0 0.00 0.01 0.00 91 1018.3
20191013090049 20 142 0.0 2.0 0.00 0.01 0.00 90 1018.3
20191013084620 21 142 0.0 1.0 0.00 0.01 0.00 90 1018.4
20191013083141 21 142 0.0 3.0 0.00 0.01 0.00 89 1018.5
20191013081608 21 140 0.0 2.0 0.00 0.01 0.00 91 1018.5
20191013080049 21 140 1.0 4.0 0.00 0.01 0.00 89 1018.5
20191013074604 21 146 2.0 3.0 0.00 0.01 0.00 90 1018.5
20191013073055 21 132 0.0 2.0 0.00 0.01 0.00 90 1018.5
20191013071615 22 132 0.0 2.0 0.00 0.01 0.00 90 1018.6
20191013070035 21 133 1.0 2.0 0.00 0.01 0.00 89 1018.6
20191013064539 22 133 0.0 2.0 0.00 0.01 0.00 90 1018.6
20191013063035 22 132 1.0 2.0 0.00 0.01 0.00 90 1018.5
20191013061523 22 129 0.0 2.0 0.00 0.01 0.00 89 1018.5
20191013060028 22 130 1.0 2.0 0.00 0.01 0.00 90 1018.5
20191013054551 22 132 1.0 3.0 0.00 0.01 0.01 90 1018.4
20191013053027 22 133 1.0 3.0 0.00 0.01 0.01 90 1018.5
20191013051520 22 153 0.0 2.0 0.00 0.01 0.01 90 1018.6
20191013050033 23 153 1.0 3.0 0.00 0.01 0.01 89 1018.7
20191013044521 23 155 0.0 2.0 0.00 0.01 0.01 89 1018.7
20191013043050 23 155 0.0 1.0 0.00 0.01 0.01 88 1018.8
20191013041519 24 155 1.0 2.0 0.00 0.01 0.01 88 1018.8
20191013040019 25 161 0.0 2.0 0.00 0.01 0.01 89 1018.9
20191013034528 24 135 1.0 2.0 0.00 0.01 0.01 89 1018.9
20191013033049 24 110 2.0 4.0 0.00 0.01 0.01 88 1019.0
20191013031530 25 128 2.0 3.0 0.00 0.01 0.01 88 1019.1
20191013030017 26 157 1.0 3.0 0.00 0.01 0.01 87 1019.2
20191013024516 26 103 2.0 4.0 0.00 0.01 0.01 84 1019.1
20191013023007 27 135 2.0 4.0 0.00 0.01 0.01 86 1019.1
20191013021508 28 129 1.0 3.0 0.00 0.01 0.01 84 1019.1
20191013020015 28 134 2.0 5.0 0.00 0.01 0.01 83 1019.1
20191013014505 29 137 1.0 4.0 0.00 0.01 0.01 82 1019.0
20191013013011 29 124 2.0 4.0 0.00 0.01 0.01 80 1019.0
20191013011503 32 233 0.0 2.0 0.00 0.01 0.01 73 1018.9
20191013010003 34 274 0.0 1.0 0.00 0.01 0.01 68 1018.9
20191013003221 40 274 0.0 1.0 0.00 0.01 0.01 56 1019.1
20191013001740 43 273 0.0 3.0 0.00 0.01 0.01 53 1019.2
20191013000201 44 327 1.0 4.0 0.00 0.01 0.01 48 1019.2
20191012234644 45 293 1.0 4.0 0.00 0.01 0.01 46 1019.1
20191012233221 45 316 1.0 5.0 0.00 0.01 0.01 48 1019.2
20191012231713 45 329 2.0 6.0 0.00 0.01 0.01 46 1019.2